sensor_id;sensor_type;location;lat;lon;timestamp;temperature;humidity
32600;DHT22;19277;51.778;7.912;2022-08-04T00:00:05;26.10;71.80
32600;DHT22;19277;51.778;7.912;2022-08-04T00:10:49;26.10;71.80
32600;DHT22;19277;51.778;7.912;2022-08-04T00:13:23;26.10;71.80
32600;DHT22;19277;51.778;7.912;2022-08-04T00:15:58;26.00;71.70
32600;DHT22;19277;51.778;7.912;2022-08-04T00:21:06;25.90;72.00
32600;DHT22;19277;51.778;7.912;2022-08-04T00:23:35;26.00;73.30
32600;DHT22;19277;51.778;7.912;2022-08-04T00:26:03;26.10;73.40
32600;DHT22;19277;51.778;7.912;2022-08-04T00:28:29;26.20;73.40
32600;DHT22;19277;51.778;7.912;2022-08-04T00:30:54;26.40;73.30
32600;DHT22;19277;51.778;7.912;2022-08-04T00:33:21;26.50;73.10
32600;DHT22;19277;51.778;7.912;2022-08-04T00:35:48;26.60;73.00
32600;DHT22;19277;51.778;7.912;2022-08-04T00:38:18;26.70;72.80
32600;DHT22;19277;51.778;7.912;2022-08-04T00:43:30;26.90;72.50
32600;DHT22;19277;51.778;7.912;2022-08-04T00:46:39;27.00;72.90
32600;DHT22;19277;51.778;7.912;2022-08-04T01:00:11;27.30;72.20
32600;DHT22;19277;51.778;7.912;2022-08-04T01:03:01;27.30;72.10
32600;DHT22;19277;51.778;7.912;2022-08-04T01:16:01;27.40;72.00
32600;DHT22;19277;51.778;7.912;2022-08-04T01:29:12;27.50;72.20
32600;DHT22;19277;51.778;7.912;2022-08-04T01:34:35;27.50;72.30
32600;DHT22;19277;51.778;7.912;2022-08-04T01:37:11;27.60;72.40
32600;DHT22;19277;51.778;7.912;2022-08-04T01:39:50;27.60;72.50
32600;DHT22;19277;51.778;7.912;2022-08-04T01:42:19;27.60;72.50
32600;DHT22;19277;51.778;7.912;2022-08-04T01:44:47;27.60;72.40
32600;DHT22;19277;51.778;7.912;2022-08-04T01:47:16;27.60;72.50
32600;DHT22;19277;51.778;7.912;2022-08-04T01:49:45;27.60;72.50
32600;DHT22;19277;51.778;7.912;2022-08-04T01:52:15;27.60;72.60
32600;DHT22;19277;51.778;7.912;2022-08-04T01:54:41;27.60;72.60
32600;DHT22;19277;51.778;7.912;2022-08-04T01:57:09;27.70;72.70
32600;DHT22;19277;51.778;7.912;2022-08-04T01:59:37;27.70;72.80
32600;DHT22;19277;51.778;7.912;2022-08-04T02:02:04;27.70;72.80
32600;DHT22;19277;51.778;7.912;2022-08-04T02:04:29;27.60;72.80
32600;DHT22;19277;51.778;7.912;2022-08-04T02:18:59;27.70;73.30
32600;DHT22;19277;51.778;7.912;2022-08-04T02:21:27;27.70;73.30
32600;DHT22;19277;51.778;7.912;2022-08-04T02:24:05;27.70;72.10
32600;DHT22;19277;51.778;7.912;2022-08-04T02:26:33;27.70;72.70
32600;DHT22;19277;51.778;7.912;2022-08-04T02:29:19;27.70;73.40
32600;DHT22;19277;51.778;7.912;2022-08-04T02:31:55;27.50;69.70
32600;DHT22;19277;51.778;7.912;2022-08-04T02:36:49;26.90;70.50
32600;DHT22;19277;51.778;7.912;2022-08-04T02:39:18;26.50;71.30
32600;DHT22;19277;51.778;7.912;2022-08-04T02:41:46;26.20;72.10
32600;DHT22;19277;51.778;7.912;2022-08-04T02:44:12;26.00;72.60
32600;DHT22;19277;51.778;7.912;2022-08-04T02:46:40;25.80;73.00
32600;DHT22;19277;51.778;7.912;2022-08-04T02:49:10;25.70;74.20
32600;DHT22;19277;51.778;7.912;2022-08-04T02:51:39;25.50;73.90
32600;DHT22;19277;51.778;7.912;2022-08-04T02:54:05;25.40;74.00
32600;DHT22;19277;51.778;7.912;2022-08-04T02:56:33;25.30;74.70
32600;DHT22;19277;51.778;7.912;2022-08-04T02:59:04;25.20;74.60
32600;DHT22;19277;51.778;7.912;2022-08-04T03:01:30;25.20;74.80
32600;DHT22;19277;51.778;7.912;2022-08-04T03:04:13;25.10;75.00
32600;DHT22;19277;51.778;7.912;2022-08-04T03:21:24;24.70;77.20
32600;DHT22;19277;51.778;7.912;2022-08-04T03:24:21;24.60;77.90
32600;DHT22;19277;51.778;7.912;2022-08-04T03:35:20;24.40;79.00
32600;DHT22;19277;51.778;7.912;2022-08-04T03:43:52;24.30;79.40
32600;DHT22;19277;51.778;7.912;2022-08-04T03:58:59;24.20;80.10
32600;DHT22;19277;51.778;7.912;2022-08-04T04:40:31;25.80;80.00
32600;DHT22;19277;51.778;7.912;2022-08-04T04:48:25;26.10;79.40
32600;DHT22;19277;51.778;7.912;2022-08-04T04:51:13;26.20;79.40
32600;DHT22;19277;51.778;7.912;2022-08-04T04:53:50;26.20;79.30
32600;DHT22;19277;51.778;7.912;2022-08-04T04:59:18;26.40;79.30
32600;DHT22;19277;51.778;7.912;2022-08-04T05:01:49;26.50;79.30
32600;DHT22;19277;51.778;7.912;2022-08-04T05:12:57;26.60;78.80
32600;DHT22;19277;51.778;7.912;2022-08-04T05:15:33;26.70;78.60
32600;DHT22;19277;51.778;7.912;2022-08-04T05:18:01;26.70;78.50
32600;DHT22;19277;51.778;7.912;2022-08-04T05:20:42;26.70;78.80
32600;DHT22;19277;51.778;7.912;2022-08-04T05:23:20;26.80;79.00
32600;DHT22;19277;51.778;7.912;2022-08-04T05:26:00;26.80;78.70
32600;DHT22;19277;51.778;7.912;2022-08-04T05:28:37;26.90;78.70
32600;DHT22;19277;51.778;7.912;2022-08-04T05:31:17;26.90;78.50
32600;DHT22;19277;51.778;7.912;2022-08-04T05:33:49;26.90;78.40
32600;DHT22;19277;51.778;7.912;2022-08-04T05:36:18;26.90;78.20
32600;DHT22;19277;51.778;7.912;2022-08-04T05:38:45;26.90;78.20
32600;DHT22;19277;51.778;7.912;2022-08-04T05:41:14;27.00;78.10
32600;DHT22;19277;51.778;7.912;2022-08-04T05:43:43;27.00;78.10
32600;DHT22;19277;51.778;7.912;2022-08-04T05:46:10;27.00;78.00
32600;DHT22;19277;51.778;7.912;2022-08-04T05:48:36;27.10;77.90
32600;DHT22;19277;51.778;7.912;2022-08-04T05:51:03;27.10;77.90
32600;DHT22;19277;51.778;7.912;2022-08-04T05:53:33;27.20;77.80
32600;DHT22;19277;51.778;7.912;2022-08-04T05:56:00;27.20;77.70
32600;DHT22;19277;51.778;7.912;2022-08-04T05:58:30;27.20;77.80
32600;DHT22;19277;51.778;7.912;2022-08-04T06:00:59;27.30;77.70
32600;DHT22;19277;51.778;7.912;2022-08-04T06:03:27;27.30;77.80
32600;DHT22;19277;51.778;7.912;2022-08-04T06:05:53;27.30;77.80
32600;DHT22;19277;51.778;7.912;2022-08-04T06:08:21;27.30;77.80
32600;DHT22;19277;51.778;7.912;2022-08-04T06:10:48;27.40;77.70
32600;DHT22;19277;51.778;7.912;2022-08-04T06:13:18;27.30;72.80
32600;DHT22;19277;51.778;7.912;2022-08-04T06:15:46;27.00;73.80
32600;DHT22;19277;51.778;7.912;2022-08-04T06:18:14;26.80;74.60
32600;DHT22;19277;51.778;7.912;2022-08-04T06:20:42;26.60;75.30
32600;DHT22;19277;51.778;7.912;2022-08-04T06:23:13;26.60;75.60
32600;DHT22;19277;51.778;7.912;2022-08-04T06:25:47;26.60;75.50
32600;DHT22;19277;51.778;7.912;2022-08-04T06:28:14;26.60;76.30
32600;DHT22;19277;51.778;7.912;2022-08-04T06:30:40;26.60;75.10
32600;DHT22;19277;51.778;7.912;2022-08-04T06:33:10;26.60;75.40
32600;DHT22;19277;51.778;7.912;2022-08-04T06:35:55;26.70;75.30
32600;DHT22;19277;51.778;7.912;2022-08-04T06:38:23;26.80;75.20
32600;DHT22;19277;51.778;7.912;2022-08-04T06:40:49;26.90;74.40
32600;DHT22;19277;51.778;7.912;2022-08-04T06:43:16;27.00;73.60
32600;DHT22;19277;51.778;7.912;2022-08-04T06:45:43;27.10;73.00
32600;DHT22;19277;51.778;7.912;2022-08-04T06:48:12;27.20;73.20
32600;DHT22;19277;51.778;7.912;2022-08-04T06:50:40;27.30;72.20
32600;DHT22;19277;51.778;7.912;2022-08-04T06:53:06;27.40;71.80
32600;DHT22;19277;51.778;7.912;2022-08-04T06:55:33;27.40;71.60
32600;DHT22;19277;51.778;7.912;2022-08-04T06:58:00;27.50;72.20
32600;DHT22;19277;51.778;7.912;2022-08-04T07:00:27;27.60;71.80
32600;DHT22;19277;51.778;7.912;2022-08-04T07:02:54;27.60;71.90
32600;DHT22;19277;51.778;7.912;2022-08-04T07:05:20;27.70;71.90
32600;DHT22;19277;51.778;7.912;2022-08-04T07:07:47;27.80;71.80
32600;DHT22;19277;51.778;7.912;2022-08-04T07:10:14;27.80;71.30
32600;DHT22;19277;51.778;7.912;2022-08-04T07:12:41;27.90;71.80
32600;DHT22;19277;51.778;7.912;2022-08-04T07:15:09;27.90;71.40
32600;DHT22;19277;51.778;7.912;2022-08-04T07:17:36;28.00;71.80
32600;DHT22;19277;51.778;7.912;2022-08-04T07:20:05;28.00;71.70
32600;DHT22;19277;51.778;7.912;2022-08-04T07:22:32;28.00;71.40
32600;DHT22;19277;51.778;7.912;2022-08-04T07:24:59;28.00;71.30
32600;DHT22;19277;51.778;7.912;2022-08-04T07:27:25;28.10;71.30
32600;DHT22;19277;51.778;7.912;2022-08-04T07:29:52;28.10;71.10
32600;DHT22;19277;51.778;7.912;2022-08-04T07:32:20;28.20;70.90
32600;DHT22;19277;51.778;7.912;2022-08-04T07:34:47;28.20;70.80
32600;DHT22;19277;51.778;7.912;2022-08-04T07:37:14;28.20;70.60
32600;DHT22;19277;51.778;7.912;2022-08-04T07:39:40;28.20;70.40
32600;DHT22;19277;51.778;7.912;2022-08-04T07:42:06;28.20;70.30
32600;DHT22;19277;51.778;7.912;2022-08-04T07:44:33;28.20;70.10
32600;DHT22;19277;51.778;7.912;2022-08-04T07:47:00;28.20;70.10
32600;DHT22;19277;51.778;7.912;2022-08-04T07:49:26;28.30;70.10
32600;DHT22;19277;51.778;7.912;2022-08-04T07:51:53;28.20;69.80
32600;DHT22;19277;51.778;7.912;2022-08-04T07:54:19;28.20;69.70
32600;DHT22;19277;51.778;7.912;2022-08-04T07:56:46;28.30;69.60
32600;DHT22;19277;51.778;7.912;2022-08-04T07:59:14;28.20;69.50
32600;DHT22;19277;51.778;7.912;2022-08-04T08:01:41;28.30;69.50
32600;DHT22;19277;51.778;7.912;2022-08-04T08:04:07;28.30;69.50
32600;DHT22;19277;51.778;7.912;2022-08-04T08:06:36;28.20;69.40
32600;DHT22;19277;51.778;7.912;2022-08-04T08:11:34;28.30;69.40
32600;DHT22;19277;51.778;7.912;2022-08-04T08:14:01;28.20;69.30
32600;DHT22;19277;51.778;7.912;2022-08-04T08:16:27;28.20;69.30
32600;DHT22;19277;51.778;7.912;2022-08-04T08:18:54;28.20;69.40
32600;DHT22;19277;51.778;7.912;2022-08-04T08:21:20;28.20;69.40
32600;DHT22;19277;51.778;7.912;2022-08-04T08:23:46;28.10;69.30
32600;DHT22;19277;51.778;7.912;2022-08-04T08:26:12;28.10;69.30
32600;DHT22;19277;51.778;7.912;2022-08-04T08:28:38;28.20;69.40
32600;DHT22;19277;51.778;7.912;2022-08-04T08:31:04;28.20;69.40
32600;DHT22;19277;51.778;7.912;2022-08-04T08:33:30;28.10;69.30
32600;DHT22;19277;51.778;7.912;2022-08-04T08:36:00;28.10;69.30
32600;DHT22;19277;51.778;7.912;2022-08-04T08:46:53;28.10;69.10
32600;DHT22;19277;51.778;7.912;2022-08-04T08:52:31;28.00;68.70
32600;DHT22;19277;51.778;7.912;2022-08-04T09:03:45;28.00;68.60
32600;DHT22;19277;51.778;7.912;2022-08-04T09:17:40;28.00;68.30
32600;DHT22;19277;51.778;7.912;2022-08-04T09:20:15;28.00;68.20
32600;DHT22;19277;51.778;7.912;2022-08-04T09:23:35;28.00;68.20
32600;DHT22;19277;51.778;7.912;2022-08-04T09:28:20;28.00;68.10
32600;DHT22;19277;51.778;7.912;2022-08-04T09:31:10;28.00;68.20
32600;DHT22;19277;51.778;7.912;2022-08-04T09:33:47;28.00;68.10
32600;DHT22;19277;51.778;7.912;2022-08-04T09:36:31;28.00;68.10
32600;DHT22;19277;51.778;7.912;2022-08-04T09:39:23;28.00;68.60
32600;DHT22;19277;51.778;7.912;2022-08-04T09:44:51;28.00;67.90
32600;DHT22;19277;51.778;7.912;2022-08-04T09:47:25;28.10;68.10
32600;DHT22;19277;51.778;7.912;2022-08-04T09:50:20;28.10;68.10
32600;DHT22;19277;51.778;7.912;2022-08-04T10:01:20;28.10;67.50
32600;DHT22;19277;51.778;7.912;2022-08-04T10:04:02;28.10;67.50
32600;DHT22;19277;51.778;7.912;2022-08-04T10:12:40;28.20;67.30
32600;DHT22;19277;51.778;7.912;2022-08-04T10:18:02;28.20;66.90
32600;DHT22;19277;51.778;7.912;2022-08-04T10:28:50;28.20;66.40
32600;DHT22;19277;51.778;7.912;2022-08-04T10:31:38;28.20;66.10
32600;DHT22;19277;51.778;7.912;2022-08-04T10:34:16;28.20;66.00
32600;DHT22;19277;51.778;7.912;2022-08-04T10:36:58;28.20;65.70
32600;DHT22;19277;51.778;7.912;2022-08-04T10:39:54;28.20;65.50
32600;DHT22;19277;51.778;7.912;2022-08-04T10:42:39;28.20;65.30
32600;DHT22;19277;51.778;7.912;2022-08-04T10:45:17;28.20;65.30
32600;DHT22;19277;51.778;7.912;2022-08-04T10:47:53;28.30;65.30
32600;DHT22;19277;51.778;7.912;2022-08-04T10:50:23;28.20;65.20
32600;DHT22;19277;51.778;7.912;2022-08-04T10:53:18;28.20;65.20
32600;DHT22;19277;51.778;7.912;2022-08-04T10:55:49;28.30;65.40
32600;DHT22;19277;51.778;7.912;2022-08-04T10:58:20;28.30;65.40
32600;DHT22;19277;51.778;7.912;2022-08-04T11:00:47;28.30;65.10
32600;DHT22;19277;51.778;7.912;2022-08-04T11:03:20;28.30;64.90
32600;DHT22;19277;51.778;7.912;2022-08-04T11:08:42;28.30;64.50
32600;DHT22;19277;51.778;7.912;2022-08-04T11:11:42;28.40;64.20
32600;DHT22;19277;51.778;7.912;2022-08-04T11:14:15;28.30;63.70
32600;DHT22;19277;51.778;7.912;2022-08-04T11:16:43;28.30;63.30
32600;DHT22;19277;51.778;7.912;2022-08-04T11:19:33;28.30;63.30
32600;DHT22;19277;51.778;7.912;2022-08-04T11:22:08;28.40;63.00
32600;DHT22;19277;51.778;7.912;2022-08-04T11:30:11;28.40;62.20
32600;DHT22;19277;51.778;7.912;2022-08-04T11:33:01;28.40;62.10
32600;DHT22;19277;51.778;7.912;2022-08-04T11:35:58;28.40;62.00
32600;DHT22;19277;51.778;7.912;2022-08-04T11:38:30;28.40;62.00
32600;DHT22;19277;51.778;7.912;2022-08-04T11:41:02;28.50;62.00
32600;DHT22;19277;51.778;7.912;2022-08-04T11:43:54;28.50;61.90
32600;DHT22;19277;51.778;7.912;2022-08-04T11:46:31;28.50;61.80
32600;DHT22;19277;51.778;7.912;2022-08-04T11:49:15;28.60;61.80
32600;DHT22;19277;51.778;7.912;2022-08-04T11:51:45;28.50;61.50
32600;DHT22;19277;51.778;7.912;2022-08-04T11:54:12;28.60;61.60
32600;DHT22;19277;51.778;7.912;2022-08-04T11:56:39;28.60;61.60
32600;DHT22;19277;51.778;7.912;2022-08-04T11:59:06;28.60;61.70
32600;DHT22;19277;51.778;7.912;2022-08-04T12:01:56;28.60;61.80
32600;DHT22;19277;51.778;7.912;2022-08-04T12:04:46;28.60;62.00
32600;DHT22;19277;51.778;7.912;2022-08-04T12:10:46;28.60;62.20
32600;DHT22;19277;51.778;7.912;2022-08-04T12:13:40;28.70;62.20
32600;DHT22;19277;51.778;7.912;2022-08-04T12:16:17;28.70;62.10
32600;DHT22;19277;51.778;7.912;2022-08-04T12:18:50;28.70;62.20
32600;DHT22;19277;51.778;7.912;2022-08-04T12:21:41;28.70;62.60
32600;DHT22;19277;51.778;7.912;2022-08-04T12:24:17;28.70;62.80
32600;DHT22;19277;51.778;7.912;2022-08-04T12:26:52;28.80;63.20
32600;DHT22;19277;51.778;7.912;2022-08-04T12:29:22;28.80;63.30
32600;DHT22;19277;51.778;7.912;2022-08-04T12:40:24;28.80;63.20
32600;DHT22;19277;51.778;7.912;2022-08-04T12:43:14;28.90;63.30
32600;DHT22;19277;51.778;7.912;2022-08-04T12:46:31;28.90;63.10
32600;DHT22;19277;51.778;7.912;2022-08-04T12:49:02;28.90;63.00
32600;DHT22;19277;51.778;7.912;2022-08-04T12:51:36;28.90;62.90
32600;DHT22;19277;51.778;7.912;2022-08-04T12:54:04;28.90;62.60
32600;DHT22;19277;51.778;7.912;2022-08-04T12:56:31;28.90;62.50
32600;DHT22;19277;51.778;7.912;2022-08-04T12:59:07;29.00;62.60
32600;DHT22;19277;51.778;7.912;2022-08-04T13:01:35;29.00;62.60
32600;DHT22;19277;51.778;7.912;2022-08-04T13:04:22;29.00;62.80
32600;DHT22;19277;51.778;7.912;2022-08-04T13:07:05;29.10;62.90
32600;DHT22;19277;51.778;7.912;2022-08-04T13:09:33;29.10;63.00
32600;DHT22;19277;51.778;7.912;2022-08-04T13:12:04;29.10;63.00
32600;DHT22;19277;51.778;7.912;2022-08-04T13:14:37;29.10;62.90
32600;DHT22;19277;51.778;7.912;2022-08-04T13:17:04;29.10;62.90
32600;DHT22;19277;51.778;7.912;2022-08-04T13:19:31;29.10;62.80
32600;DHT22;19277;51.778;7.912;2022-08-04T13:21:57;29.10;62.60
32600;DHT22;19277;51.778;7.912;2022-08-04T13:24:25;29.10;62.60
32600;DHT22;19277;51.778;7.912;2022-08-04T13:26:56;29.10;62.60
32600;DHT22;19277;51.778;7.912;2022-08-04T13:29:24;29.10;62.60
32600;DHT22;19277;51.778;7.912;2022-08-04T13:31:51;29.10;62.60
32600;DHT22;19277;51.778;7.912;2022-08-04T13:34:18;29.10;62.80
32600;DHT22;19277;51.778;7.912;2022-08-04T13:36:45;29.10;62.80
32600;DHT22;19277;51.778;7.912;2022-08-04T13:39:18;29.20;62.90
32600;DHT22;19277;51.778;7.912;2022-08-04T13:41:49;29.10;63.20
32600;DHT22;19277;51.778;7.912;2022-08-04T13:44:28;29.20;63.30
32600;DHT22;19277;51.778;7.912;2022-08-04T13:47:07;29.10;63.50
32600;DHT22;19277;51.778;7.912;2022-08-04T13:49:33;29.10;63.70
32600;DHT22;19277;51.778;7.912;2022-08-04T13:52:01;29.20;63.90
32600;DHT22;19277;51.778;7.912;2022-08-04T13:54:47;29.20;63.80
32600;DHT22;19277;51.778;7.912;2022-08-04T13:57:26;29.30;63.80
32600;DHT22;19277;51.778;7.912;2022-08-04T13:59:58;29.30;63.80
32600;DHT22;19277;51.778;7.912;2022-08-04T14:02:49;29.30;64.40
32600;DHT22;19277;51.778;7.912;2022-08-04T14:05:25;29.30;63.90
32600;DHT22;19277;51.778;7.912;2022-08-04T14:08:16;29.30;63.90
32600;DHT22;19277;51.778;7.912;2022-08-04T14:10:39;29.30;64.00
32600;DHT22;19277;51.778;7.912;2022-08-04T14:13:06;29.30;64.10
32600;DHT22;19277;51.778;7.912;2022-08-04T14:15:34;29.30;64.40
32600;DHT22;19277;51.778;7.912;2022-08-04T14:18:20;29.30;64.50
32600;DHT22;19277;51.778;7.912;2022-08-04T14:21:01;29.30;64.70
32600;DHT22;19277;51.778;7.912;2022-08-04T14:23:28;29.40;65.10
32600;DHT22;19277;51.778;7.912;2022-08-04T14:25:54;29.40;65.50
32600;DHT22;19277;51.778;7.912;2022-08-04T14:28:30;29.50;65.30
32600;DHT22;19277;51.778;7.912;2022-08-04T14:31:14;29.50;65.30
32600;DHT22;19277;51.778;7.912;2022-08-04T14:33:42;29.50;65.30
32600;DHT22;19277;51.778;7.912;2022-08-04T14:36:09;29.50;65.40
32600;DHT22;19277;51.778;7.912;2022-08-04T14:39:01;29.50;65.60
32600;DHT22;19277;51.778;7.912;2022-08-04T14:41:28;29.50;65.70
32600;DHT22;19277;51.778;7.912;2022-08-04T14:44:00;29.50;65.80
32600;DHT22;19277;51.778;7.912;2022-08-04T14:46:27;29.50;65.80
32600;DHT22;19277;51.778;7.912;2022-08-04T14:49:04;29.50;65.80
32600;DHT22;19277;51.778;7.912;2022-08-04T14:51:39;29.50;65.70
32600;DHT22;19277;51.778;7.912;2022-08-04T14:54:07;29.60;65.80
32600;DHT22;19277;51.778;7.912;2022-08-04T14:56:34;29.50;65.80
32600;DHT22;19277;51.778;7.912;2022-08-04T14:59:03;29.50;65.90
32600;DHT22;19277;51.778;7.912;2022-08-04T15:01:29;29.50;65.80
32600;DHT22;19277;51.778;7.912;2022-08-04T15:03:57;29.50;65.90
32600;DHT22;19277;51.778;7.912;2022-08-04T15:06:26;29.50;65.90
32600;DHT22;19277;51.778;7.912;2022-08-04T15:08:55;29.50;65.90
32600;DHT22;19277;51.778;7.912;2022-08-04T15:11:21;29.50;66.10
32600;DHT22;19277;51.778;7.912;2022-08-04T15:13:47;29.50;66.10
32600;DHT22;19277;51.778;7.912;2022-08-04T15:16:13;29.50;65.90
32600;DHT22;19277;51.778;7.912;2022-08-04T15:18:40;29.50;65.80
32600;DHT22;19277;51.778;7.912;2022-08-04T15:21:06;29.60;65.90
32600;DHT22;19277;51.778;7.912;2022-08-04T15:23:33;29.60;65.90
32600;DHT22;19277;51.778;7.912;2022-08-04T15:26:02;29.60;65.90
32600;DHT22;19277;51.778;7.912;2022-08-04T15:28:30;29.60;65.90
32600;DHT22;19277;51.778;7.912;2022-08-04T15:31:00;29.50;65.80
32600;DHT22;19277;51.778;7.912;2022-08-04T15:33:27;29.50;66.00
32600;DHT22;19277;51.778;7.912;2022-08-04T15:36:12;29.60;66.10
32600;DHT22;19277;51.778;7.912;2022-08-04T15:38:48;29.50;66.00
32600;DHT22;19277;51.778;7.912;2022-08-04T15:41:25;29.50;66.20
32600;DHT22;19277;51.778;7.912;2022-08-04T15:49:30;29.50;66.30
32600;DHT22;19277;51.778;7.912;2022-08-04T15:52:22;29.50;66.90
32600;DHT22;19277;51.778;7.912;2022-08-04T15:58:15;29.40;66.40
32600;DHT22;19277;51.778;7.912;2022-08-04T16:08:26;29.40;66.60
32600;DHT22;19277;51.778;7.912;2022-08-04T16:10:52;29.40;67.00
32600;DHT22;19277;51.778;7.912;2022-08-04T16:13:22;29.40;67.00
32600;DHT22;19277;51.778;7.912;2022-08-04T16:15:55;29.40;66.90
32600;DHT22;19277;51.778;7.912;2022-08-04T16:21:01;29.40;67.30
32600;DHT22;19277;51.778;7.912;2022-08-04T16:28:59;29.40;67.40
32600;DHT22;19277;51.778;7.912;2022-08-04T16:31:25;29.40;67.50
32600;DHT22;19277;51.778;7.912;2022-08-04T16:33:57;29.40;67.80
32600;DHT22;19277;51.778;7.912;2022-08-04T16:36:55;29.40;68.20
32600;DHT22;19277;51.778;7.912;2022-08-04T16:39:22;29.40;68.00
32600;DHT22;19277;51.778;7.912;2022-08-04T16:41:48;29.40;67.90
32600;DHT22;19277;51.778;7.912;2022-08-04T16:44:34;29.40;67.80
32600;DHT22;19277;51.778;7.912;2022-08-04T16:47:07;29.40;68.10
32600;DHT22;19277;51.778;7.912;2022-08-04T16:49:33;29.40;68.50
32600;DHT22;19277;51.778;7.912;2022-08-04T16:52:06;29.40;68.20
32600;DHT22;19277;51.778;7.912;2022-08-04T16:54:34;29.40;68.00
32600;DHT22;19277;51.778;7.912;2022-08-04T16:57:06;29.40;68.30
32600;DHT22;19277;51.778;7.912;2022-08-04T16:59:32;29.40;68.40
32600;DHT22;19277;51.778;7.912;2022-08-04T17:01:58;29.40;68.60
32600;DHT22;19277;51.778;7.912;2022-08-04T17:04:31;29.40;68.30
32600;DHT22;19277;51.778;7.912;2022-08-04T17:07:02;29.40;68.60
32600;DHT22;19277;51.778;7.912;2022-08-04T17:09:28;29.40;68.80
32600;DHT22;19277;51.778;7.912;2022-08-04T17:11:55;29.30;68.80
32600;DHT22;19277;51.778;7.912;2022-08-04T17:14:23;29.40;68.60
32600;DHT22;19277;51.778;7.912;2022-08-04T17:16:50;29.30;68.70
32600;DHT22;19277;51.778;7.912;2022-08-04T17:19:16;29.30;68.60
32600;DHT22;19277;51.778;7.912;2022-08-04T17:21:42;29.40;69.00
32600;DHT22;19277;51.778;7.912;2022-08-04T17:24:08;29.40;69.40
32600;DHT22;19277;51.778;7.912;2022-08-04T17:26:36;29.40;69.70
32600;DHT22;19277;51.778;7.912;2022-08-04T17:29:02;29.30;69.70
32600;DHT22;19277;51.778;7.912;2022-08-04T17:31:31;29.30;69.80
32600;DHT22;19277;51.778;7.912;2022-08-04T17:33:59;29.40;70.10
32600;DHT22;19277;51.778;7.912;2022-08-04T17:36:29;29.30;70.40
32600;DHT22;19277;51.778;7.912;2022-08-04T17:39:13;29.30;70.40
32600;DHT22;19277;51.778;7.912;2022-08-04T17:41:39;29.20;70.30
32600;DHT22;19277;51.778;7.912;2022-08-04T17:44:05;29.20;70.50
32600;DHT22;19277;51.778;7.912;2022-08-04T17:46:37;29.20;70.30
32600;DHT22;19277;51.778;7.912;2022-08-04T17:54:08;29.10;70.70
32600;DHT22;19277;51.778;7.912;2022-08-04T17:56:38;29.00;70.70
32600;DHT22;19277;51.778;7.912;2022-08-04T18:06:55;29.00;69.20
32600;DHT22;19277;51.778;7.912;2022-08-04T18:09:29;29.00;69.00
32600;DHT22;19277;51.778;7.912;2022-08-04T18:12:04;28.90;69.00
32600;DHT22;19277;51.778;7.912;2022-08-04T18:14:44;28.90;69.00
32600;DHT22;19277;51.778;7.912;2022-08-04T18:17:11;28.90;69.00
32600;DHT22;19277;51.778;7.912;2022-08-04T18:19:37;28.90;68.90
32600;DHT22;19277;51.778;7.912;2022-08-04T18:22:05;28.90;69.10
32600;DHT22;19277;51.778;7.912;2022-08-04T18:24:32;28.80;69.00
32600;DHT22;19277;51.778;7.912;2022-08-04T18:26:58;28.80;69.20
32600;DHT22;19277;51.778;7.912;2022-08-04T18:29:24;28.70;69.30
32600;DHT22;19277;51.778;7.912;2022-08-04T18:31:49;28.60;69.40
32600;DHT22;19277;51.778;7.912;2022-08-04T18:34:15;28.60;69.20
32600;DHT22;19277;51.778;7.912;2022-08-04T18:36:41;28.60;69.00
32600;DHT22;19277;51.778;7.912;2022-08-04T18:39:08;28.50;68.70
32600;DHT22;19277;51.778;7.912;2022-08-04T18:41:34;28.50;69.00
32600;DHT22;19277;51.778;7.912;2022-08-04T18:44:00;28.40;69.10
32600;DHT22;19277;51.778;7.912;2022-08-04T18:46:26;28.40;69.40
32600;DHT22;19277;51.778;7.912;2022-08-04T18:48:52;28.30;69.80
32600;DHT22;19277;51.778;7.912;2022-08-04T18:51:18;28.20;70.10
32600;DHT22;19277;51.778;7.912;2022-08-04T18:53:45;28.20;70.40
32600;DHT22;19277;51.778;7.912;2022-08-04T18:56:11;28.10;70.50
32600;DHT22;19277;51.778;7.912;2022-08-04T18:58:37;28.10;70.50
32600;DHT22;19277;51.778;7.912;2022-08-04T19:01:03;28.10;70.60
32600;DHT22;19277;51.778;7.912;2022-08-04T19:03:29;28.00;70.80
32600;DHT22;19277;51.778;7.912;2022-08-04T19:05:54;27.90;71.20
32600;DHT22;19277;51.778;7.912;2022-08-04T19:08:20;27.90;71.40
32600;DHT22;19277;51.778;7.912;2022-08-04T19:10:46;27.80;71.60
32600;DHT22;19277;51.778;7.912;2022-08-04T19:13:11;27.80;71.80
32600;DHT22;19277;51.778;7.912;2022-08-04T19:15:37;27.70;72.10
32600;DHT22;19277;51.778;7.912;2022-08-04T19:18:02;27.60;72.50
32600;DHT22;19277;51.778;7.912;2022-08-04T19:20:28;27.50;72.80
32600;DHT22;19277;51.778;7.912;2022-08-04T19:22:55;27.50;73.00
32600;DHT22;19277;51.778;7.912;2022-08-04T19:25:21;27.50;73.30
32600;DHT22;19277;51.778;7.912;2022-08-04T19:27:47;27.40;73.50
32600;DHT22;19277;51.778;7.912;2022-08-04T19:30:12;27.40;73.80
32600;DHT22;19277;51.778;7.912;2022-08-04T19:32:38;27.40;73.80
32600;DHT22;19277;51.778;7.912;2022-08-04T19:35:04;27.40;74.00
32600;DHT22;19277;51.778;7.912;2022-08-04T19:37:30;27.40;74.10
32600;DHT22;19277;51.778;7.912;2022-08-04T19:39:56;27.30;74.40
32600;DHT22;19277;51.778;7.912;2022-08-04T19:42:22;27.20;74.80
32600;DHT22;19277;51.778;7.912;2022-08-04T19:44:48;27.10;75.10
32600;DHT22;19277;51.778;7.912;2022-08-04T19:47:13;27.10;75.50
32600;DHT22;19277;51.778;7.912;2022-08-04T19:49:39;27.10;75.50
32600;DHT22;19277;51.778;7.912;2022-08-04T19:52:05;27.00;75.60
32600;DHT22;19277;51.778;7.912;2022-08-04T19:54:32;27.00;75.80
32600;DHT22;19277;51.778;7.912;2022-08-04T19:56:57;27.00;76.20
32600;DHT22;19277;51.778;7.912;2022-08-04T19:59:23;26.90;76.50
32600;DHT22;19277;51.778;7.912;2022-08-04T20:01:48;26.80;76.80
32600;DHT22;19277;51.778;7.912;2022-08-04T20:04:14;26.80;77.10
32600;DHT22;19277;51.778;7.912;2022-08-04T20:06:40;26.70;77.20
32600;DHT22;19277;51.778;7.912;2022-08-04T20:09:06;26.70;77.50
32600;DHT22;19277;51.778;7.912;2022-08-04T20:11:32;26.60;77.80
32600;DHT22;19277;51.778;7.912;2022-08-04T20:13:58;26.60;78.00
32600;DHT22;19277;51.778;7.912;2022-08-04T20:16:23;26.50;78.30
32600;DHT22;19277;51.778;7.912;2022-08-04T20:18:49;26.40;78.70
32600;DHT22;19277;51.778;7.912;2022-08-04T20:21:15;26.40;79.00
32600;DHT22;19277;51.778;7.912;2022-08-04T20:23:40;26.30;79.00
32600;DHT22;19277;51.778;7.912;2022-08-04T20:26:06;26.30;79.10
32600;DHT22;19277;51.778;7.912;2022-08-04T20:28:32;26.30;79.30
32600;DHT22;19277;51.778;7.912;2022-08-04T20:30:58;26.30;79.30
32600;DHT22;19277;51.778;7.912;2022-08-04T20:33:23;26.30;79.50
32600;DHT22;19277;51.778;7.912;2022-08-04T20:35:49;26.30;79.40
32600;DHT22;19277;51.778;7.912;2022-08-04T20:38:15;26.30;79.60